Terminal Aerodrome Forecast
Issued by NWS

Home | Current Version | Previous Version | Text Only | Print | Product List | Glossary On
Versions: 1 2 3 4 5 6 7 8 9 10 11 12 13 14
000
FTUS41 KBTV 021729
TAFMPV
TAF
KMPV 021729Z 0218/0318 28007KT P6SM FEW150
     FM030100 VRB03KT P6SM SKC
     FM030700 00000KT 1SM BR SCT001
     FM031100 00000KT P6SM SKC=

USA.gov is the U.S. government's official web portal to all federal, state and local government web resources and services.